METAR historie Noord Nederlandse Zweefvliegclub (NL-0036)

3 juli 2022

Tijd Code Weer Temp. Zicht Plafond Wind METAR/SPECI
7:55 a.m.
V
64 °F 6¼ mi+ - 240° 240° 7 kt METAR EHMA 030555Z AUTO 24007KT 9999 NSC 18/13 Q1016
7:25 a.m.
V
64 °F 6¼ mi+ - 270° 270° 8 kt METAR EHMA 030525Z AUTO 27008KT 9999 NSC 18/13 Q1016
6:55 a.m.
V
64 °F 6¼ mi+ - 270° 270° 7 kt METAR EHMA 030455Z AUTO 27007KT 9999 NSC 18/13 Q1016
6:25 a.m.
V
64 °F 6¼ mi+ - 280° 280° 8 kt METAR EHMA 030425Z AUTO 28008KT 9999 NSC 18/13 Q1016
5:55 a.m.
V
64 °F 6¼ mi+ - 250° 250° 7 kt METAR EHMA 030355Z AUTO 25007KT 9999 NSC 18/14 Q1016
5:25 a.m.
V
64 °F 6¼ mi+ - 200° 200° 9 kt METAR EHMA 030325Z AUTO 20009KT 170V240 9999 NSC 18/13 Q1016
4:55 a.m.
V
64 °F 6¼ mi+ - 170° 170° 7 kt METAR EHMA 030255Z AUTO 17007KT 9999 NSC 18/14 Q1016
4:25 a.m.
V
63 °F 6¼ mi+ - 140° 140° 6 kt METAR EHMA 030225Z AUTO 14006KT 9999 NSC 17/15 Q1016
3:55 a.m.
V
64 °F 6¼ mi+ - 190° 190° 5 kt METAR EHMA 030155Z AUTO 19005KT 160V220 9999 NSC 18/15 Q1016
3:25 a.m.
V
64 °F 6¼ mi+ - 240° 240° 3 kt METAR EHMA 030125Z AUTO 24003KT 9999 NCD 18/15 Q1017
2:55 a.m.
V
64 °F 6¼ mi+ - 240° 240° 3 kt METAR EHMA 030055Z AUTO 24003KT 9999 NSC 18/15 Q1017
2:25 a.m.
V
64 °F 6¼ mi+ - 210° 210° 6 kt METAR EHMA 030025Z AUTO 21006KT 9999 NSC 18/14 Q1017
1:55 a.m.
V
66 °F 6¼ mi+ - 170° 170° 9 kt METAR EHMA 022355Z AUTO 17009KT 9999 NSC 19/15 Q1017
1:25 a.m.
V
66 °F 6¼ mi+ - 130° 130° 10 kt METAR EHMA 022325Z AUTO 13010KT 9999 NSC 19/14 Q1017
12:55 a.m.
V
66 °F 6¼ mi+ - 130° 130° 11 kt METAR EHMA 022255Z AUTO 13011KT 9999 NSC 19/15 Q1017
12:25 a.m.
V
66 °F 6¼ mi+ - 110° 110° 13 kt METAR EHMA 022225Z AUTO 11013KT 9999 NSC 19/16 Q1018

2 juli 2022

Tijd Code Weer Temp. Zicht Plafond Wind METAR/SPECI
11:55 p.m.
V
66 °F 6¼ mi+ - 100° 100° 12 kt METAR EHMA 022155Z AUTO 10012KT 9999 NSC 19/15 Q1018
11:25 p.m.
V
66 °F 6¼ mi+ - 120° 120° 9 kt METAR EHMA 022125Z AUTO 12009KT 9999 NSC 19/15 Q1018
10:55 p.m.
V
66 °F 6¼ mi+ - 120° 120° 10 kt METAR EHMA 022055Z AUTO 12010KT 9999 NSC 19/14 Q1018
10:25 p.m.
V
66 °F 6¼ mi+ - 120° 120° 8 kt METAR EHMA 022025Z AUTO 12008KT 9999 NSC 19/14 Q1018
9:55 p.m.
V
66 °F 6¼ mi+ - 110° 110° 6 kt METAR EHMA 021955Z AUTO 11006KT 080V140 9999 NSC 19/14 Q1018
9:25 p.m.
V
66 °F 6¼ mi+ - 120° 120° 7 kt METAR EHMA 021925Z AUTO 12007KT 9999 NSC 19/14 Q1018
8:55 p.m.
V
68 °F 6¼ mi+ - 110° 110° 4 kt METAR EHMA 021855Z AUTO 11004KT 070V140 9999 NSC 20/14 Q1018
8:25 p.m.
V
68 °F 6¼ mi+ - Var Var 1 kt METAR EHMA 021825Z AUTO VRB01KT 9999 NSC 20/12 Q1018
7:55 p.m.
V
68 °F 6¼ mi+ - Var Var 1 kt METAR EHMA 021755Z AUTO VRB01KT 9999 NSC 20/11 Q1018
7:25 p.m.
V
68 °F 6¼ mi+ - 240° 240° 3 kt METAR EHMA 021725Z AUTO 24003KT 9999 NSC 20/11 Q1019
6:55 p.m.
V
68 °F 6¼ mi+ - 230° 230° 4 kt METAR EHMA 021655Z AUTO 23004KT 200V260 9999 NSC 20/11 Q1019
6:25 p.m.
V
68 °F 6¼ mi+ - 240° 240° 6 kt METAR EHMA 021625Z AUTO 24006KT 9999 NSC 20/12 Q1019
5:55 p.m.
V
68 °F 6¼ mi+ - 230° 230° 6 kt METAR EHMA 021555Z AUTO 23006KT 9999 NSC 20/11 Q1019
5:25 p.m.
V
66 °F 6¼ mi+ - 250° 250° 6 kt METAR EHMA 021525Z AUTO 25006KT 9999 NSC 19/12 Q1020
4:55 p.m.
V
66 °F 6¼ mi+ - 230° 230° 7 kt METAR EHMA 021455Z AUTO 23007KT 9999 NSC 19/12 Q1020
4:25 p.m.
V
66 °F 6¼ mi+ - 250° 250° 8 kt METAR EHMA 021425Z AUTO 25008KT 9999 NSC 19/12 Q1020
3:55 p.m.
V
66 °F 6¼ mi+ - 250° 250° 9 kt METAR EHMA 021355Z AUTO 25009KT 9999 SCT036 SCT043 19/12 Q1020
3:25 p.m.
V
66 °F 6¼ mi+ - 250° 250° 9 kt METAR EHMA 021325Z AUTO 25009KT 210V270 9999 FEW036 SCT041 19/12 Q1020
2:55 p.m.
V
66 °F 6¼ mi+ - 240° 240° 11 kt METAR EHMA 021255Z AUTO 24011KT 9999 FEW035 SCT047 19/11 Q1020
2:25 p.m.
V
64 °F 6¼ mi+ - 240° 240° 12 kt METAR EHMA 021225Z AUTO 24012KT 9999 FEW035 SCT047 18/11 Q1020
1:55 p.m.
V
66 °F 6¼ mi+ - 240° 240° 12 kt METAR EHMA 021155Z AUTO 24012KT 9999 FEW047 19/11 Q1020
1:25 p.m.
V
64 °F 6¼ mi+ - 240° 240° 14 kt METAR EHMA 021125Z AUTO 24014KT 9999 FEW037 18/10 Q1021
12:55 p.m.
V
64 °F 6¼ mi+ - 230° 230° 15 kt METAR EHMA 021055Z AUTO 23015KT 9999 FEW037 18/10 Q1021
12:25 p.m.
V
64 °F 6¼ mi+ - 210° 210° 13 kt METAR EHMA 021025Z AUTO 21013KT 9999 FEW027 18/11 Q1021
11:55 a.m.
V
64 °F 6¼ mi+ - 230° 230° 13 kt METAR EHMA 020955Z AUTO 23013KT 9999 FEW027 18/11 Q1021
11:25 a.m.
V
64 °F 6¼ mi+ - 220° 220° 15 kt METAR EHMA 020925Z AUTO 22015KT 9999 FEW026 18/11 Q1021
10:55 a.m.
V
64 °F 6¼ mi+ - 210° 210° 14 kt METAR EHMA 020855Z AUTO 21014KT 9999 FEW025 18/11 Q1020
10:25 a.m.
V
63 °F 6¼ mi+ - 200° 200° 13 kt METAR EHMA 020825Z AUTO 20013KT 9999 FEW017 SCT034 17/12 Q1020
9:55 a.m.
V
63 °F 6¼ mi+ - 210° 210° 12 kt METAR EHMA 020755Z AUTO 21012KT 9999 FEW016 SCT032 17/13 Q1020
9:25 a.m.
V
63 °F 6¼ mi+ - 210° 210° 15 kt METAR EHMA 020725Z AUTO 21015KT 9999 FEW016 17/13 Q1020
8:55 a.m.
V
61 °F 6¼ mi+ - Var Var 17 kt METAR EHMA 020655Z AUTO VRB17KT 9999 FEW017 16/13 Q1020
8:25 a.m.
V
61 °F 6¼ mi+ - 200° 200° 18 kt METAR EHMA 020625Z AUTO 20018KT 180V240 9999 FEW017 16/13 Q1020
7:55 a.m.
V
59 °F 6¼ mi+ - 200° 200° 17 kt METAR EHMA 020555Z AUTO 20017KT 9999 FEW021 15/13 Q1020
7:25 a.m.
V
59 °F 6¼ mi+ - 200° 200° 18 kt METAR EHMA 020525Z AUTO 20018KT 9999 FEW021 15/12 Q1019
6:55 a.m.
V
57 °F 6¼ mi+ - 200° 200° 18 kt METAR EHMA 020455Z AUTO 20018KT 9999 NCD 14/12 Q1019
6:25 a.m.
V
59 °F 6¼ mi+ - 200° 200° 19 kt METAR EHMA 020425Z AUTO 20019KT 9999 NCD 15/12 Q1019
5:55 a.m.
V
59 °F 6¼ mi+ - 200° 200° 19 kt METAR EHMA 020355Z AUTO 20019KT 180V240 9999 NCD 15/12 Q1019
5:25 a.m.
V
59 °F 6¼ mi+ - 200° 200° 19 kt METAR EHMA 020325Z AUTO 20019KT 180V240 9999 NCD 15/11 Q1019
4:55 a.m.
V
59 °F 6¼ mi+ - 210° 210° 18 kt METAR EHMA 020255Z AUTO 21018KT 180V240 9999 NCD 15/11 Q1019
4:25 a.m.
V
59 °F 6¼ mi+ - 210° 210° 19 kt METAR EHMA 020225Z AUTO 21019KT 180V240 9999 NCD 15/11 Q1019
3:55 a.m.
V
59 °F 6¼ mi+ - 210° 210° 16 kt METAR EHMA 020155Z AUTO 21016KT 180V250 9999 NCD 15/12 Q1019
3:25 a.m.
V
59 °F 6¼ mi+ - 210° 210° 17 kt METAR EHMA 020125Z AUTO 21017KT 180V240 9999 NCD 15/12 Q1019
2:55 a.m.
V
61 °F 6¼ mi+ - 200° 200° 18 kt METAR EHMA 020055Z AUTO 20018KT 9999 NCD 16/12 Q1019
2:25 a.m.
V
61 °F 6¼ mi+ - 200° 200° 17 kt METAR EHMA 020025Z AUTO 20017KT 180V250 9999 NCD 16/12 Q1019
1:55 a.m.
V
61 °F 6¼ mi+ - 200° 200° 17 kt METAR EHMA 012355Z AUTO 20017KT 9999 NCD 16/12 Q1019
1:25 a.m.
V
61 °F 6¼ mi+ - 210° 210° 16 kt METAR EHMA 012325Z AUTO 21016KT 9999 NCD 16/12 Q1019
12:55 a.m.
V
61 °F 6¼ mi+ - 210° 210° 17 kt METAR EHMA 012255Z AUTO 21017KT 180V270 9999 NSC 16/12 Q1019
12:25 a.m.
V
63 °F 6¼ mi+ - 210° 210° 15 kt METAR EHMA 012225Z AUTO 21015KT 110V250 9999 NSC 17/12 Q1019

1 juli 2022

Tijd Code Weer Temp. Zicht Plafond Wind METAR/SPECI
11:55 p.m.
V
63 °F 6¼ mi+ - 200° 200° 12 kt METAR EHMA 012155Z AUTO 20012KT 9999 FEW025 17/12 Q1019
11:25 p.m.
V
63 °F 6¼ mi+ - 210° 210° 13 kt METAR EHMA 012125Z AUTO 21013KT 9999 SCT023 SCT028 17/13 Q1019
10:55 p.m.
V
63 °F 6¼ mi+ - 230° 230° 13 kt METAR EHMA 012055Z AUTO 23013KT 9999 FEW023 SCT026 17/12 Q1019
10:25 p.m.
V
63 °F 6¼ mi+ - 230° 230° 14 kt METAR EHMA 012025Z AUTO 23014KT 9999 FEW023 17/12 Q1019
9:55 p.m.
V
64 °F 6¼ mi+ - 240° 240° 13 kt METAR EHMA 011955Z AUTO 24013KT 9999 FEW025 18/12 Q1018
9:25 p.m.
V
64 °F 6¼ mi+ - 240° 240° 15 kt METAR EHMA 011925Z AUTO 24015KT 9999 FEW028 18/12 Q1018
8:55 p.m.
V
64 °F 6¼ mi+ - 240° 240° 17 kt METAR EHMA 011855Z AUTO 24017KT 9999 FEW025 18/12 Q1018
8:25 p.m.
V
64 °F 6¼ mi+ - 240° 240° 17 kt METAR EHMA 011825Z AUTO 24017KT 9999 FEW024 18/12 Q1018
7:55 p.m.
V
64 °F 6¼ mi+ - 240° 240° 17 kt METAR EHMA 011755Z AUTO 24017KT 9999 FEW023 SCT030 18/12 Q1018
7:25 p.m.
V
64 °F 6¼ mi+ - 230° 230° 18 kt METAR EHMA 011725Z AUTO 23018KT 9999 FEW023 SCT029 18/12 Q1018
6:55 p.m.
V
64 °F 6¼ mi+ - 240° 240° 19 kt METAR EHMA 011655Z AUTO 24019KT 9999 FEW024 SCT038 18/12 Q1017
6:25 p.m.
V
64 °F 6¼ mi+ - 240° 240° 19 kt METAR EHMA 011625Z AUTO 24019KT 9999 FEW025 SCT032 18/12 Q1017
5:55 p.m.
V
64 °F 6¼ mi+ - 240° 240° 19 kt METAR EHMA 011555Z AUTO 24019KT 9999 FEW027 18/12 Q1017
5:25 p.m.
V
64 °F 6¼ mi+ - 240° 240° 18 kt METAR EHMA 011525Z AUTO 24018KT 9999 FEW028 18/11 Q1017
4:55 p.m.
V
64 °F 6¼ mi+ - 240° 240° 16 kt METAR EHMA 011455Z AUTO 24016KT 9999 FEW028 18/11 Q1017
4:25 p.m.
V
64 °F 6¼ mi+ - 240° 240° 18 kt METAR EHMA 011425Z AUTO 24018KT 9999 FEW029 18/10 Q1017
3:55 p.m.
V
64 °F 6¼ mi+ - 240° 240° 15 kt METAR EHMA 011355Z AUTO 24015KT 9999 FEW029 18/11 Q1016
3:25 p.m.
V
63 °F 6¼ mi+ - 240° 240° 17 kt METAR EHMA 011325Z AUTO 24017KT 9999 FEW028 17/10 Q1016
2:55 p.m.
V
63 °F 6¼ mi+ - 240° 240° 17 kt METAR EHMA 011255Z AUTO 24017KT 9999 FEW022 17/11 Q1016
2:25 p.m.
V
63 °F 6¼ mi+ - 250° 250° 14 kt METAR EHMA 011225Z AUTO 25014KT 9999 FEW022 17/12 Q1016
12:55 p.m.
V
63 °F 6¼ mi+ - 250° 250° 14 kt METAR EHMA 011055Z AUTO 25014KT 9999 FEW024 17/12 Q1016
12:25 p.m.
V
63 °F 6¼ mi+ - 250° 250° 16 kt METAR EHMA 011025Z AUTO 25016KT 9999 FEW024 SCT029 17/11 Q1015
11:55 a.m.
V
63 °F 6¼ mi+ - 240° 240° 15 kt METAR EHMA 010955Z AUTO 24015KT 9999 FEW020 SCT031 17/10 Q1015
11:25 a.m.
V
63 °F 6¼ mi+ 4.300 ft 240° 240° 14 kt METAR EHMA 010925Z AUTO 24014KT 9999 FEW020 SCT026 BKN043 17/12 Q1015
10:55 a.m.
V
63 °F 6¼ mi+ - 230° 230° 16 kt METAR EHMA 010855Z AUTO 23016KT 9999 FEW024 17/11 Q1015
10:25 a.m.
V
63 °F 6¼ mi+ 3.100 ft 240° 240° 14 kt METAR EHMA 010825Z AUTO 24014KT 9999 FEW015 SCT023 BKN031 17/12 Q1014
9:55 a.m.
M
61 °F 6¼ mi+ 2.100 ft Var Var 15 kt METAR EHMA 010755Z AUTO VRB15KT 9999 FEW012 SCT018 BKN021 16/14 Q1014
9:25 a.m.
M
61 °F 6¼ mi+ 2.000 ft Var Var 12 kt METAR EHMA 010725Z AUTO VRB12KT 9999 FEW012 SCT016 BKN020 16/13 Q1014
8:55 a.m.
M
61 °F 6¼ mi+ 1.500 ft Var Var 7 kt METAR EHMA 010655Z AUTO VRB07KT 9999 BKN015 BKN018 BKN023 16/13 Q1014
8:25 a.m.
M
61 °F 6¼ mi+ 1.500 ft 240° 240° 11 kt METAR EHMA 010625Z AUTO 24011KT 9999 BKN015 BKN020 BKN024 16/13 Q1014
7:55 a.m.
V
61 °F 6¼ mi+ - 250° 250° 12 kt METAR EHMA 010555Z AUTO 25012KT 9999 FEW016 16/12 Q1014
7:25 a.m.
V
61 °F 6¼ mi+ - 250° 250° 13 kt METAR EHMA 010525Z AUTO 25013KT 9999 FEW018 16/12 Q1013
6:55 a.m.
V
61 °F 6¼ mi+ - 250° 250° 14 kt METAR EHMA 010455Z AUTO 25014KT 9999 FEW019 SCT035 16/12 Q1013
6:25 a.m.
V
61 °F 6¼ mi+ 3.600 ft 260° 260° 14 kt METAR EHMA 010425Z AUTO 26014KT 9999 FEW017 SCT021 BKN036 16/13 Q1013
5:55 a.m.
V
61 °F 6¼ mi+ 3.700 ft 260° 260° 13 kt METAR EHMA 010355Z AUTO 26013KT 9999 FEW020 SCT032 BKN037 16/13 Q1013
5:25 a.m.
V
61 °F 6¼ mi+ - 260° 260° 14 kt METAR EHMA 010325Z AUTO 26014KT 9999 FEW030 SCT039 16/13 Q1013
4:55 a.m.
V
61 °F 6¼ mi+ 3.400 ft 250° 250° 15 kt METAR EHMA 010255Z AUTO 25015KT 9999 FEW012 SCT021 BKN034 16/13 Q1013
Oudere gegevens

Installeer onze app

Gemakkelijke toegang tot al het luchtvaartweer op je mobiele telefoon en tablet.
Met veel functies die niet op de website beschikbaar zijn, zoals offline ondersteuning en een persoonlijke lijst van vliegvelden.

Met cookies volgen wij en derde partijen jouw internetgedrag binnen onze site. Als je verdergaat gaan we ervan uit dat je dit goedvindt. Meer info